Terminal Aerodrome Forecast
Issued by NWS Charleston, WV

Current Version | Previous Version | Graphics & Text | Print | Product List | Glossary On
Versions: 1 2 3 4 5 6 7 8 9 10 11 12 13 14 15 16 17 18 19 20 21 22 23 24 25 26
000
FTUS41 KRLX 202300
TAFHTS
TAF
KHTS 202333Z 2100/2124 19006KT P6SM SKC
     FM210900 21006KT 4SM BR SCT025
     FM211400 23008KT 6SM SHRA BR VCTS BKN025CB
     FM211900 25010G15KT P6SM BKN025
     FM212200 27011G16KT P6SM BKN040=

USA.gov is the U.S. government's official web portal to all federal, state and local government web resources and services.